sensor_id;sensor_type;location;lat;lon;timestamp;temperature;humidity
26541;DHT22;14206;50.202;10.948;2023-02-28T00:01:22;-1.00;90.70
26541;DHT22;14206;50.202;10.948;2023-02-28T00:03:49;-1.00;90.40
26541;DHT22;14206;50.202;10.948;2023-02-28T00:06:16;-1.00;90.30
26541;DHT22;14206;50.202;10.948;2023-02-28T00:08:43;-1.00;90.40
26541;DHT22;14206;50.202;10.948;2023-02-28T00:11:12;-0.90;90.30
26541;DHT22;14206;50.202;10.948;2023-02-28T00:13:41;-0.90;90.00
26541;DHT22;14206;50.202;10.948;2023-02-28T00:16:11;-0.80;89.40
26541;DHT22;14206;50.202;10.948;2023-02-28T00:18:40;-0.70;89.10
26541;DHT22;14206;50.202;10.948;2023-02-28T00:21:07;-0.70;88.70
26541;DHT22;14206;50.202;10.948;2023-02-28T00:23:34;-0.60;88.80
26541;DHT22;14206;50.202;10.948;2023-02-28T00:26:01;-0.60;88.50
26541;DHT22;14206;50.202;10.948;2023-02-28T00:28:28;-0.50;88.20
26541;DHT22;14206;50.202;10.948;2023-02-28T00:30:58;-0.50;88.40
26541;DHT22;14206;50.202;10.948;2023-02-28T00:33:27;-0.50;88.10
26541;DHT22;14206;50.202;10.948;2023-02-28T00:36:14;-0.40;88.10
26541;DHT22;14206;50.202;10.948;2023-02-28T00:38:41;-0.40;87.50
26541;DHT22;14206;50.202;10.948;2023-02-28T00:41:08;-0.40;87.30
26541;DHT22;14206;50.202;10.948;2023-02-28T00:43:37;-0.40;87.20
26541;DHT22;14206;50.202;10.948;2023-02-28T00:46:05;-0.40;87.30
26541;DHT22;14206;50.202;10.948;2023-02-28T00:48:34;-0.40;87.60
26541;DHT22;14206;50.202;10.948;2023-02-28T00:51:01;-0.40;87.60
26541;DHT22;14206;50.202;10.948;2023-02-28T00:53:29;-0.40;87.50
26541;DHT22;14206;50.202;10.948;2023-02-28T00:55:56;-0.30;87.10
26541;DHT22;14206;50.202;10.948;2023-02-28T00:58:25;-0.30;87.00
26541;DHT22;14206;50.202;10.948;2023-02-28T01:00:52;-0.30;87.00
26541;DHT22;14206;50.202;10.948;2023-02-28T01:03:20;-0.20;86.90
26541;DHT22;14206;50.202;10.948;2023-02-28T01:05:47;-0.20;86.70
26541;DHT22;14206;50.202;10.948;2023-02-28T01:08:16;-0.20;86.60
26541;DHT22;14206;50.202;10.948;2023-02-28T01:10:43;-0.20;86.90
26541;DHT22;14206;50.202;10.948;2023-02-28T01:13:11;-0.20;86.30
26541;DHT22;14206;50.202;10.948;2023-02-28T01:15:39;-0.20;86.10
26541;DHT22;14206;50.202;10.948;2023-02-28T01:18:08;-0.20;86.60
26541;DHT22;14206;50.202;10.948;2023-02-28T01:20:37;-0.20;86.80
26541;DHT22;14206;50.202;10.948;2023-02-28T01:23:04;-0.20;86.60
26541;DHT22;14206;50.202;10.948;2023-02-28T01:25:36;-0.20;86.30
26541;DHT22;14206;50.202;10.948;2023-02-28T01:28:04;-0.20;86.60
26541;DHT22;14206;50.202;10.948;2023-02-28T01:30:33;-0.20;86.60
26541;DHT22;14206;50.202;10.948;2023-02-28T01:33:00;-0.20;86.70
26541;DHT22;14206;50.202;10.948;2023-02-28T01:35:27;-0.10;86.80
26541;DHT22;14206;50.202;10.948;2023-02-28T01:37:54;-0.10;86.70
26541;DHT22;14206;50.202;10.948;2023-02-28T01:40:21;-0.10;86.30
26541;DHT22;14206;50.202;10.948;2023-02-28T01:42:48;-0.10;86.60
26541;DHT22;14206;50.202;10.948;2023-02-28T01:45:32;-0.10;86.30
26541;DHT22;14206;50.202;10.948;2023-02-28T01:48:04;-0.10;86.30
26541;DHT22;14206;50.202;10.948;2023-02-28T01:50:36;-0.20;86.50
26541;DHT22;14206;50.202;10.948;2023-02-28T01:53:07;-0.20;86.70
26541;DHT22;14206;50.202;10.948;2023-02-28T01:55:37;-0.20;86.70
26541;DHT22;14206;50.202;10.948;2023-02-28T01:58:06;-0.20;86.60
26541;DHT22;14206;50.202;10.948;2023-02-28T02:00:33;-0.20;86.50
26541;DHT22;14206;50.202;10.948;2023-02-28T02:03:08;-0.20;86.50
26541;DHT22;14206;50.202;10.948;2023-02-28T02:05:38;-0.30;86.50
26541;DHT22;14206;50.202;10.948;2023-02-28T02:08:08;-0.30;86.30
26541;DHT22;14206;50.202;10.948;2023-02-28T02:10:45;-0.40;86.50
26541;DHT22;14206;50.202;10.948;2023-02-28T02:13:44;-0.40;86.60
26541;DHT22;14206;50.202;10.948;2023-02-28T02:27:03;-0.90;87.50
26541;DHT22;14206;50.202;10.948;2023-02-28T02:35:25;-1.10;88.30
26541;DHT22;14206;50.202;10.948;2023-02-28T02:43:36;-1.20;88.40
26541;DHT22;14206;50.202;10.948;2023-02-28T02:46:08;-1.20;88.40
26541;DHT22;14206;50.202;10.948;2023-02-28T02:48:39;-1.20;88.30
26541;DHT22;14206;50.202;10.948;2023-02-28T02:51:14;-1.20;88.20
26541;DHT22;14206;50.202;10.948;2023-02-28T02:53:51;-1.20;88.20
26541;DHT22;14206;50.202;10.948;2023-02-28T02:56:24;-1.20;88.10
26541;DHT22;14206;50.202;10.948;2023-02-28T02:58:56;-1.30;88.20
26541;DHT22;14206;50.202;10.948;2023-02-28T03:01:26;-1.30;88.30
26541;DHT22;14206;50.202;10.948;2023-02-28T03:04:01;-1.30;88.30
26541;DHT22;14206;50.202;10.948;2023-02-28T03:06:30;-1.40;88.60
26541;DHT22;14206;50.202;10.948;2023-02-28T03:08:57;-1.40;88.50
26541;DHT22;14206;50.202;10.948;2023-02-28T03:11:24;-1.40;88.50
26541;DHT22;14206;50.202;10.948;2023-02-28T03:16:49;-1.50;88.30
26541;DHT22;14206;50.202;10.948;2023-02-28T03:24:52;-1.80;88.00
26541;DHT22;14206;50.202;10.948;2023-02-28T03:27:29;-1.90;87.90
26541;DHT22;14206;50.202;10.948;2023-02-28T03:30:04;-2.00;88.30
26541;DHT22;14206;50.202;10.948;2023-02-28T03:32:36;-2.00;88.30
26541;DHT22;14206;50.202;10.948;2023-02-28T03:35:10;-2.10;88.30
26541;DHT22;14206;50.202;10.948;2023-02-28T03:37:42;-2.20;88.40
26541;DHT22;14206;50.202;10.948;2023-02-28T03:40:15;-2.30;88.60
26541;DHT22;14206;50.202;10.948;2023-02-28T03:42:46;-2.30;88.60
26541;DHT22;14206;50.202;10.948;2023-02-28T03:45:28;-2.40;88.90
26541;DHT22;14206;50.202;10.948;2023-02-28T03:48:17;-2.50;89.10
26541;DHT22;14206;50.202;10.948;2023-02-28T03:50:48;-2.50;88.90
26541;DHT22;14206;50.202;10.948;2023-02-28T03:53:42;-2.60;89.20
26541;DHT22;14206;50.202;10.948;2023-02-28T03:56:24;-2.60;89.30
26541;DHT22;14206;50.202;10.948;2023-02-28T03:58:57;-2.70;89.50
26541;DHT22;14206;50.202;10.948;2023-02-28T04:01:39;-2.70;89.10
26541;DHT22;14206;50.202;10.948;2023-02-28T04:04:12;-2.80;89.30
26541;DHT22;14206;50.202;10.948;2023-02-28T04:06:40;-2.80;89.30
26541;DHT22;14206;50.202;10.948;2023-02-28T04:09:09;-2.90;89.40
26541;DHT22;14206;50.202;10.948;2023-02-28T04:11:52;-3.00;89.50
26541;DHT22;14206;50.202;10.948;2023-02-28T04:14:19;-3.00;89.60
26541;DHT22;14206;50.202;10.948;2023-02-28T04:16:46;-3.00;89.90
26541;DHT22;14206;50.202;10.948;2023-02-28T04:19:14;-3.10;89.90
26541;DHT22;14206;50.202;10.948;2023-02-28T04:21:45;-3.10;89.90
26541;DHT22;14206;50.202;10.948;2023-02-28T04:24:20;-3.20;90.00
26541;DHT22;14206;50.202;10.948;2023-02-28T04:26:51;-3.20;90.00
26541;DHT22;14206;50.202;10.948;2023-02-28T04:29:20;-3.20;90.00
26541;DHT22;14206;50.202;10.948;2023-02-28T04:31:47;-3.20;90.10
26541;DHT22;14206;50.202;10.948;2023-02-28T04:34:15;-3.30;90.20
26541;DHT22;14206;50.202;10.948;2023-02-28T04:36:43;-3.30;90.40
26541;DHT22;14206;50.202;10.948;2023-02-28T04:39:09;-3.30;90.50
26541;DHT22;14206;50.202;10.948;2023-02-28T04:41:36;-3.30;90.50
26541;DHT22;14206;50.202;10.948;2023-02-28T04:44:04;-3.40;90.80
26541;DHT22;14206;50.202;10.948;2023-02-28T04:46:33;-3.40;90.80
26541;DHT22;14206;50.202;10.948;2023-02-28T04:49:00;-3.40;91.00
26541;DHT22;14206;50.202;10.948;2023-02-28T04:51:26;-3.40;91.30
26541;DHT22;14206;50.202;10.948;2023-02-28T04:53:54;-3.50;91.40
26541;DHT22;14206;50.202;10.948;2023-02-28T04:56:21;-3.50;91.40
26541;DHT22;14206;50.202;10.948;2023-02-28T04:58:48;-3.50;91.20
26541;DHT22;14206;50.202;10.948;2023-02-28T05:01:27;-3.50;91.30
26541;DHT22;14206;50.202;10.948;2023-02-28T05:03:57;-3.50;91.20
26541;DHT22;14206;50.202;10.948;2023-02-28T05:06:26;-3.50;91.10
26541;DHT22;14206;50.202;10.948;2023-02-28T05:08:53;-3.50;91.40
26541;DHT22;14206;50.202;10.948;2023-02-28T05:11:21;-3.60;91.60
26541;DHT22;14206;50.202;10.948;2023-02-28T05:13:51;-3.60;91.50
26541;DHT22;14206;50.202;10.948;2023-02-28T05:16:18;-3.60;91.80
26541;DHT22;14206;50.202;10.948;2023-02-28T05:18:45;-3.60;91.70
26541;DHT22;14206;50.202;10.948;2023-02-28T05:23:55;-3.60;92.10
26541;DHT22;14206;50.202;10.948;2023-02-28T05:26:22;-3.60;92.30
26541;DHT22;14206;50.202;10.948;2023-02-28T05:28:49;-3.60;92.40
26541;DHT22;14206;50.202;10.948;2023-02-28T05:31:16;-3.60;92.60
26541;DHT22;14206;50.202;10.948;2023-02-28T05:33:43;-3.60;93.90
26541;DHT22;14206;50.202;10.948;2023-02-28T05:36:10;-3.50;94.50
26541;DHT22;14206;50.202;10.948;2023-02-28T05:38:37;-3.50;94.60
26541;DHT22;14206;50.202;10.948;2023-02-28T05:41:08;-3.40;94.50
26541;DHT22;14206;50.202;10.948;2023-02-28T05:43:36;-3.30;94.70
26541;DHT22;14206;50.202;10.948;2023-02-28T05:46:08;-3.20;94.80
26541;DHT22;14206;50.202;10.948;2023-02-28T05:48:37;-3.20;94.70
26541;DHT22;14206;50.202;10.948;2023-02-28T05:51:05;-3.10;94.70
26541;DHT22;14206;50.202;10.948;2023-02-28T05:53:34;-3.00;94.70
26541;DHT22;14206;50.202;10.948;2023-02-28T05:56:01;-2.90;94.50
26541;DHT22;14206;50.202;10.948;2023-02-28T05:58:28;-2.80;94.50
26541;DHT22;14206;50.202;10.948;2023-02-28T06:01:37;-2.70;94.40
26541;DHT22;14206;50.202;10.948;2023-02-28T06:04:08;-2.60;94.10
26541;DHT22;14206;50.202;10.948;2023-02-28T06:06:48;-2.50;93.90
26541;DHT22;14206;50.202;10.948;2023-02-28T06:09:17;-2.50;93.70
26541;DHT22;14206;50.202;10.948;2023-02-28T06:11:43;-2.40;93.50
26541;DHT22;14206;50.202;10.948;2023-02-28T06:14:16;-2.30;93.20
26541;DHT22;14206;50.202;10.948;2023-02-28T06:16:43;-2.20;93.20
26541;DHT22;14206;50.202;10.948;2023-02-28T06:19:10;-2.20;92.90
26541;DHT22;14206;50.202;10.948;2023-02-28T06:21:37;-2.10;92.70
26541;DHT22;14206;50.202;10.948;2023-02-28T06:24:04;-2.00;92.60
26541;DHT22;14206;50.202;10.948;2023-02-28T06:26:32;-1.90;92.10
26541;DHT22;14206;50.202;10.948;2023-02-28T06:28:58;-1.90;91.90
26541;DHT22;14206;50.202;10.948;2023-02-28T06:31:27;-1.80;91.90
26541;DHT22;14206;50.202;10.948;2023-02-28T06:33:55;-1.70;91.70
26541;DHT22;14206;50.202;10.948;2023-02-28T06:36:23;-1.70;91.50
26541;DHT22;14206;50.202;10.948;2023-02-28T06:38:50;-1.60;91.60
26541;DHT22;14206;50.202;10.948;2023-02-28T06:41:25;-1.50;91.40
26541;DHT22;14206;50.202;10.948;2023-02-28T06:43:53;-1.40;91.00
26541;DHT22;14206;50.202;10.948;2023-02-28T06:46:20;-1.30;90.90
26541;DHT22;14206;50.202;10.948;2023-02-28T06:48:47;-1.20;90.60
26541;DHT22;14206;50.202;10.948;2023-02-28T06:51:17;-1.10;90.70
26541;DHT22;14206;50.202;10.948;2023-02-28T06:53:45;-1.00;90.50
26541;DHT22;14206;50.202;10.948;2023-02-28T06:56:14;-0.90;90.00
26541;DHT22;14206;50.202;10.948;2023-02-28T06:58:41;-0.80;89.70
26541;DHT22;14206;50.202;10.948;2023-02-28T07:01:08;-0.70;89.40
26541;DHT22;14206;50.202;10.948;2023-02-28T07:03:36;-0.60;89.10
26541;DHT22;14206;50.202;10.948;2023-02-28T07:06:04;-0.60;89.00
26541;DHT22;14206;50.202;10.948;2023-02-28T07:08:39;-0.50;88.50
26541;DHT22;14206;50.202;10.948;2023-02-28T07:11:07;-0.40;88.50
26541;DHT22;14206;50.202;10.948;2023-02-28T07:13:34;-0.30;88.20
26541;DHT22;14206;50.202;10.948;2023-02-28T07:16:03;-0.20;87.60
26541;DHT22;14206;50.202;10.948;2023-02-28T07:18:32;-0.10;87.10
26541;DHT22;14206;50.202;10.948;2023-02-28T07:21:02;-0.10;86.80
26541;DHT22;14206;50.202;10.948;2023-02-28T07:23:29;-0.10;86.60
26541;DHT22;14206;50.202;10.948;2023-02-28T07:25:56;-0.10;86.70
26541;DHT22;14206;50.202;10.948;2023-02-28T07:28:23;-0.10;86.60
26541;DHT22;14206;50.202;10.948;2023-02-28T07:30:50;-0.10;86.50
26541;DHT22;14206;50.202;10.948;2023-02-28T07:33:17;-0.10;86.60
26541;DHT22;14206;50.202;10.948;2023-02-28T07:35:44;0.00;86.40
26541;DHT22;14206;50.202;10.948;2023-02-28T07:38:11;0.20;86.20
26541;DHT22;14206;50.202;10.948;2023-02-28T07:40:40;0.30;85.50
26541;DHT22;14206;50.202;10.948;2023-02-28T07:43:07;0.40;85.70
26541;DHT22;14206;50.202;10.948;2023-02-28T07:45:33;0.50;85.50
26541;DHT22;14206;50.202;10.948;2023-02-28T07:48:01;0.60;84.80
26541;DHT22;14206;50.202;10.948;2023-02-28T07:50:28;0.70;84.90
26541;DHT22;14206;50.202;10.948;2023-02-28T07:52:58;0.80;84.40
26541;DHT22;14206;50.202;10.948;2023-02-28T07:55:25;0.90;83.70
26541;DHT22;14206;50.202;10.948;2023-02-28T07:57:53;0.90;83.80
26541;DHT22;14206;50.202;10.948;2023-02-28T08:00:20;1.00;83.40
26541;DHT22;14206;50.202;10.948;2023-02-28T08:02:47;1.10;83.50
26541;DHT22;14206;50.202;10.948;2023-02-28T08:05:14;1.20;83.00
26541;DHT22;14206;50.202;10.948;2023-02-28T08:07:41;1.30;82.60
26541;DHT22;14206;50.202;10.948;2023-02-28T08:10:08;1.40;82.10
26541;DHT22;14206;50.202;10.948;2023-02-28T08:12:36;1.50;81.70
26541;DHT22;14206;50.202;10.948;2023-02-28T08:15:03;1.70;81.00
26541;DHT22;14206;50.202;10.948;2023-02-28T08:17:30;1.90;81.20
26541;DHT22;14206;50.202;10.948;2023-02-28T08:20:00;2.00;80.10
26541;DHT22;14206;50.202;10.948;2023-02-28T08:22:27;2.20;79.50
26541;DHT22;14206;50.202;10.948;2023-02-28T08:24:54;2.40;78.50
26541;DHT22;14206;50.202;10.948;2023-02-28T08:27:20;2.60;77.60
26541;DHT22;14206;50.202;10.948;2023-02-28T08:29:47;2.80;77.60
26541;DHT22;14206;50.202;10.948;2023-02-28T08:32:14;3.00;76.80
26541;DHT22;14206;50.202;10.948;2023-02-28T08:34:55;3.20;75.80
26541;DHT22;14206;50.202;10.948;2023-02-28T08:37:22;3.50;74.30
26541;DHT22;14206;50.202;10.948;2023-02-28T08:39:49;3.90;73.10
26541;DHT22;14206;50.202;10.948;2023-02-28T08:42:17;4.20;72.20
26541;DHT22;14206;50.202;10.948;2023-02-28T08:44:44;4.50;72.20
26541;DHT22;14206;50.202;10.948;2023-02-28T08:47:11;4.70;70.20
26541;DHT22;14206;50.202;10.948;2023-02-28T08:49:38;4.70;69.70
26541;DHT22;14206;50.202;10.948;2023-02-28T08:52:05;4.90;69.40
26541;DHT22;14206;50.202;10.948;2023-02-28T08:54:32;5.00;68.10
26541;DHT22;14206;50.202;10.948;2023-02-28T08:57:00;5.20;66.00
26541;DHT22;14206;50.202;10.948;2023-02-28T08:59:27;5.30;67.10
26541;DHT22;14206;50.202;10.948;2023-02-28T09:01:54;5.50;66.30
26541;DHT22;14206;50.202;10.948;2023-02-28T09:04:21;5.60;65.00
26541;DHT22;14206;50.202;10.948;2023-02-28T09:06:50;5.70;65.20
26541;DHT22;14206;50.202;10.948;2023-02-28T09:09:17;6.00;64.60
26541;DHT22;14206;50.202;10.948;2023-02-28T09:11:44;6.20;65.00
26541;DHT22;14206;50.202;10.948;2023-02-28T09:14:11;6.40;64.10
26541;DHT22;14206;50.202;10.948;2023-02-28T09:16:38;6.50;63.70
26541;DHT22;14206;50.202;10.948;2023-02-28T09:19:04;6.60;63.20
26541;DHT22;14206;50.202;10.948;2023-02-28T09:21:31;6.60;61.20
26541;DHT22;14206;50.202;10.948;2023-02-28T09:23:58;6.60;61.50
26541;DHT22;14206;50.202;10.948;2023-02-28T09:26:27;6.50;61.20
26541;DHT22;14206;50.202;10.948;2023-02-28T09:29:08;6.50;62.00
26541;DHT22;14206;50.202;10.948;2023-02-28T09:31:35;6.50;62.40
26541;DHT22;14206;50.202;10.948;2023-02-28T09:34:03;6.70;61.40
26541;DHT22;14206;50.202;10.948;2023-02-28T09:36:30;7.20;60.80
26541;DHT22;14206;50.202;10.948;2023-02-28T09:39:11;7.80;61.10
26541;DHT22;14206;50.202;10.948;2023-02-28T09:41:42;8.40;58.50
26541;DHT22;14206;50.202;10.948;2023-02-28T09:44:40;8.80;57.20
26541;DHT22;14206;50.202;10.948;2023-02-28T09:47:32;8.90;54.80
26541;DHT22;14206;50.202;10.948;2023-02-28T09:50:17;8.20;53.30
26541;DHT22;14206;50.202;10.948;2023-02-28T09:52:48;7.60;54.90
26541;DHT22;14206;50.202;10.948;2023-02-28T09:55:30;7.10;55.20
26541;DHT22;14206;50.202;10.948;2023-02-28T09:58:49;6.70;55.80
26541;DHT22;14206;50.202;10.948;2023-02-28T10:06:37;6.10;55.60
26541;DHT22;14206;50.202;10.948;2023-02-28T10:09:12;6.50;56.80
26541;DHT22;14206;50.202;10.948;2023-02-28T10:11:40;7.40;56.40
26541;DHT22;14206;50.202;10.948;2023-02-28T10:14:21;8.60;55.40
26541;DHT22;14206;50.202;10.948;2023-02-28T10:19:42;11.10;50.50
26541;DHT22;14206;50.202;10.948;2023-02-28T10:22:23;12.10;49.20
26541;DHT22;14206;50.202;10.948;2023-02-28T10:24:52;12.40;48.00
26541;DHT22;14206;50.202;10.948;2023-02-28T10:27:30;12.10;47.00
26541;DHT22;14206;50.202;10.948;2023-02-28T10:30:00;12.60;48.00
26541;DHT22;14206;50.202;10.948;2023-02-28T10:32:37;13.40;46.40
26541;DHT22;14206;50.202;10.948;2023-02-28T10:35:19;13.70;44.90
26541;DHT22;14206;50.202;10.948;2023-02-28T10:37:54;14.00;43.00
26541;DHT22;14206;50.202;10.948;2023-02-28T10:43:05;14.30;42.80
26541;DHT22;14206;50.202;10.948;2023-02-28T10:46:22;14.40;44.00
26541;DHT22;14206;50.202;10.948;2023-02-28T10:49:23;14.40;41.70
26541;DHT22;14206;50.202;10.948;2023-02-28T10:51:56;14.10;41.80
26541;DHT22;14206;50.202;10.948;2023-02-28T10:54:36;14.30;42.90
26541;DHT22;14206;50.202;10.948;2023-02-28T10:57:23;13.80;42.80
26541;DHT22;14206;50.202;10.948;2023-02-28T11:00:04;13.30;44.00
26541;DHT22;14206;50.202;10.948;2023-02-28T11:02:36;12.80;43.80
26541;DHT22;14206;50.202;10.948;2023-02-28T11:10:33;12.40;45.80
26541;DHT22;14206;50.202;10.948;2023-02-28T11:13:02;12.50;44.90
26541;DHT22;14206;50.202;10.948;2023-02-28T11:15:34;12.50;45.60
26541;DHT22;14206;50.202;10.948;2023-02-28T11:20:51;11.70;46.40
26541;DHT22;14206;50.202;10.948;2023-02-28T11:23:19;11.00;46.80
26541;DHT22;14206;50.202;10.948;2023-02-28T11:25:56;10.80;48.10
26541;DHT22;14206;50.202;10.948;2023-02-28T11:28:31;10.90;49.00
26541;DHT22;14206;50.202;10.948;2023-02-28T11:31:05;10.30;48.50
26541;DHT22;14206;50.202;10.948;2023-02-28T11:33:42;10.00;50.30
26541;DHT22;14206;50.202;10.948;2023-02-28T11:36:38;10.20;49.00
26541;DHT22;14206;50.202;10.948;2023-02-28T11:39:09;10.80;48.90
26541;DHT22;14206;50.202;10.948;2023-02-28T11:47:09;12.20;45.80
26541;DHT22;14206;50.202;10.948;2023-02-28T11:49:55;11.80;46.50
26541;DHT22;14206;50.202;10.948;2023-02-28T11:52:40;11.10;47.90
26541;DHT22;14206;50.202;10.948;2023-02-28T12:11:54;7.10;57.10
26541;DHT22;14206;50.202;10.948;2023-02-28T12:25:30;6.50;56.80
26541;DHT22;14206;50.202;10.948;2023-02-28T12:28:01;6.40;59.60
26541;DHT22;14206;50.202;10.948;2023-02-28T12:30:32;6.50;59.30
26541;DHT22;14206;50.202;10.948;2023-02-28T12:33:09;6.60;58.80
26541;DHT22;14206;50.202;10.948;2023-02-28T12:35:51;6.60;58.70
26541;DHT22;14206;50.202;10.948;2023-02-28T12:38:27;6.60;58.60
26541;DHT22;14206;50.202;10.948;2023-02-28T12:41:00;6.60;57.90
26541;DHT22;14206;50.202;10.948;2023-02-28T12:43:43;6.60;58.70
26541;DHT22;14206;50.202;10.948;2023-02-28T12:46:19;6.50;58.90
26541;DHT22;14206;50.202;10.948;2023-02-28T12:48:54;6.40;60.30
26541;DHT22;14206;50.202;10.948;2023-02-28T12:51:24;6.40;60.20
26541;DHT22;14206;50.202;10.948;2023-02-28T12:54:10;6.30;61.00
26541;DHT22;14206;50.202;10.948;2023-02-28T12:56:42;6.30;61.20
26541;DHT22;14206;50.202;10.948;2023-02-28T13:07:46;6.10;61.10
26541;DHT22;14206;50.202;10.948;2023-02-28T13:10:21;6.00;61.60
26541;DHT22;14206;50.202;10.948;2023-02-28T13:12:53;5.90;61.70
26541;DHT22;14206;50.202;10.948;2023-02-28T13:15:24;5.90;62.10
26541;DHT22;14206;50.202;10.948;2023-02-28T13:17:54;5.80;61.60
26541;DHT22;14206;50.202;10.948;2023-02-28T13:20:27;5.70;61.50
26541;DHT22;14206;50.202;10.948;2023-02-28T13:22:56;5.70;62.50
26541;DHT22;14206;50.202;10.948;2023-02-28T13:28:02;5.60;61.50
26541;DHT22;14206;50.202;10.948;2023-02-28T13:33:27;5.60;61.70
26541;DHT22;14206;50.202;10.948;2023-02-28T13:36:09;5.60;62.40
26541;DHT22;14206;50.202;10.948;2023-02-28T13:38:40;5.60;62.00
26541;DHT22;14206;50.202;10.948;2023-02-28T13:44:16;5.40;62.50
26541;DHT22;14206;50.202;10.948;2023-02-28T13:51:52;5.80;62.40
26541;DHT22;14206;50.202;10.948;2023-02-28T14:05:38;7.00;60.60
26541;DHT22;14206;50.202;10.948;2023-02-28T14:08:15;7.60;59.30
26541;DHT22;14206;50.202;10.948;2023-02-28T14:10:46;7.90;58.10
26541;DHT22;14206;50.202;10.948;2023-02-28T14:16:02;7.30;58.80
26541;DHT22;14206;50.202;10.948;2023-02-28T14:18:32;7.00;60.20
26541;DHT22;14206;50.202;10.948;2023-02-28T14:21:33;6.80;60.40
26541;DHT22;14206;50.202;10.948;2023-02-28T14:37:40;6.00;63.60
26541;DHT22;14206;50.202;10.948;2023-02-28T14:40:32;5.80;63.10
26541;DHT22;14206;50.202;10.948;2023-02-28T14:43:03;5.70;64.10
26541;DHT22;14206;50.202;10.948;2023-02-28T14:45:32;5.70;64.70
26541;DHT22;14206;50.202;10.948;2023-02-28T14:48:01;5.60;64.50
26541;DHT22;14206;50.202;10.948;2023-02-28T14:50:34;5.60;65.00
26541;DHT22;14206;50.202;10.948;2023-02-28T14:53:02;5.60;65.40
26541;DHT22;14206;50.202;10.948;2023-02-28T14:55:32;5.50;64.30
26541;DHT22;14206;50.202;10.948;2023-02-28T14:58:05;5.40;64.40
26541;DHT22;14206;50.202;10.948;2023-02-28T15:00:35;5.40;64.30
26541;DHT22;14206;50.202;10.948;2023-02-28T15:03:28;5.40;64.70
26541;DHT22;14206;50.202;10.948;2023-02-28T15:06:02;5.30;65.40
26541;DHT22;14206;50.202;10.948;2023-02-28T15:08:29;5.30;66.10
26541;DHT22;14206;50.202;10.948;2023-02-28T15:11:05;5.30;65.00
26541;DHT22;14206;50.202;10.948;2023-02-28T15:13:43;5.30;64.70
26541;DHT22;14206;50.202;10.948;2023-02-28T15:16:21;5.30;64.70
26541;DHT22;14206;50.202;10.948;2023-02-28T15:18:49;5.20;64.50
26541;DHT22;14206;50.202;10.948;2023-02-28T15:21:31;5.20;64.70
26541;DHT22;14206;50.202;10.948;2023-02-28T15:24:20;5.10;66.10
26541;DHT22;14206;50.202;10.948;2023-02-28T15:26:57;5.00;65.40
26541;DHT22;14206;50.202;10.948;2023-02-28T15:29:27;4.90;65.70
26541;DHT22;14206;50.202;10.948;2023-02-28T15:32:06;4.90;66.70
26541;DHT22;14206;50.202;10.948;2023-02-28T15:34:39;4.80;66.30
26541;DHT22;14206;50.202;10.948;2023-02-28T15:42:32;4.60;66.40
26541;DHT22;14206;50.202;10.948;2023-02-28T15:44:59;4.60;66.90
26541;DHT22;14206;50.202;10.948;2023-02-28T15:47:35;4.60;66.10
26541;DHT22;14206;50.202;10.948;2023-02-28T15:50:09;4.50;66.80
26541;DHT22;14206;50.202;10.948;2023-02-28T15:52:39;4.50;66.70
26541;DHT22;14206;50.202;10.948;2023-02-28T15:55:19;4.50;66.70
26541;DHT22;14206;50.202;10.948;2023-02-28T15:57:52;4.40;66.30
26541;DHT22;14206;50.202;10.948;2023-02-28T16:00:25;4.40;67.00
26541;DHT22;14206;50.202;10.948;2023-02-28T16:02:52;4.30;67.90
26541;DHT22;14206;50.202;10.948;2023-02-28T16:05:27;4.20;68.00
26541;DHT22;14206;50.202;10.948;2023-02-28T16:07:59;4.10;68.50
26541;DHT22;14206;50.202;10.948;2023-02-28T16:10:27;4.00;68.90
26541;DHT22;14206;50.202;10.948;2023-02-28T16:12:56;3.90;69.10
26541;DHT22;14206;50.202;10.948;2023-02-28T16:15:29;3.80;69.10
26541;DHT22;14206;50.202;10.948;2023-02-28T16:17:57;3.70;69.40
26541;DHT22;14206;50.202;10.948;2023-02-28T16:20:28;3.60;69.80
26541;DHT22;14206;50.202;10.948;2023-02-28T16:22:56;3.50;70.00
26541;DHT22;14206;50.202;10.948;2023-02-28T16:25:29;3.50;70.20
26541;DHT22;14206;50.202;10.948;2023-02-28T16:27:59;3.40;70.90
26541;DHT22;14206;50.202;10.948;2023-02-28T16:30:31;3.40;71.10
26541;DHT22;14206;50.202;10.948;2023-02-28T16:32:58;3.30;71.80
26541;DHT22;14206;50.202;10.948;2023-02-28T16:35:25;3.20;71.90
26541;DHT22;14206;50.202;10.948;2023-02-28T16:37:52;3.10;72.20
26541;DHT22;14206;50.202;10.948;2023-02-28T16:40:24;3.00;72.60
26541;DHT22;14206;50.202;10.948;2023-02-28T16:42:54;3.00;73.00
26541;DHT22;14206;50.202;10.948;2023-02-28T16:45:26;2.90;72.70
26541;DHT22;14206;50.202;10.948;2023-02-28T16:47:54;2.80;72.80
26541;DHT22;14206;50.202;10.948;2023-02-28T16:50:24;2.80;73.80
26541;DHT22;14206;50.202;10.948;2023-02-28T16:52:51;2.70;74.20
26541;DHT22;14206;50.202;10.948;2023-02-28T16:55:21;2.60;74.10
26541;DHT22;14206;50.202;10.948;2023-02-28T16:57:53;2.60;74.20
26541;DHT22;14206;50.202;10.948;2023-02-28T17:00:20;2.50;74.10
26541;DHT22;14206;50.202;10.948;2023-02-28T17:02:47;2.50;74.40
26541;DHT22;14206;50.202;10.948;2023-02-28T17:05:15;2.40;74.60
26541;DHT22;14206;50.202;10.948;2023-02-28T17:07:42;2.40;74.40
26541;DHT22;14206;50.202;10.948;2023-02-28T17:10:23;2.40;74.80
26541;DHT22;14206;50.202;10.948;2023-02-28T17:12:50;2.40;75.00
26541;DHT22;14206;50.202;10.948;2023-02-28T17:15:19;2.30;75.40
26541;DHT22;14206;50.202;10.948;2023-02-28T17:17:49;2.20;75.50
26541;DHT22;14206;50.202;10.948;2023-02-28T17:20:19;2.20;75.90
26541;DHT22;14206;50.202;10.948;2023-02-28T17:22:50;2.10;76.20
26541;DHT22;14206;50.202;10.948;2023-02-28T17:25:17;2.10;76.60
26541;DHT22;14206;50.202;10.948;2023-02-28T17:27:44;2.00;76.30
26541;DHT22;14206;50.202;10.948;2023-02-28T17:30:18;2.00;76.60
26541;DHT22;14206;50.202;10.948;2023-02-28T17:32:45;2.00;76.90
26541;DHT22;14206;50.202;10.948;2023-02-28T17:35:13;1.90;77.10
26541;DHT22;14206;50.202;10.948;2023-02-28T17:37:40;1.90;77.20
26541;DHT22;14206;50.202;10.948;2023-02-28T17:40:28;1.80;77.30
26541;DHT22;14206;50.202;10.948;2023-02-28T17:42:54;1.80;77.50
26541;DHT22;14206;50.202;10.948;2023-02-28T17:45:23;1.80;77.50
26541;DHT22;14206;50.202;10.948;2023-02-28T17:47:50;1.70;77.60
26541;DHT22;14206;50.202;10.948;2023-02-28T17:50:19;1.70;77.50
26541;DHT22;14206;50.202;10.948;2023-02-28T17:52:47;1.70;77.90
26541;DHT22;14206;50.202;10.948;2023-02-28T17:55:14;1.70;77.80
26541;DHT22;14206;50.202;10.948;2023-02-28T17:57:41;1.70;78.10
26541;DHT22;14206;50.202;10.948;2023-02-28T18:00:13;1.70;78.10
26541;DHT22;14206;50.202;10.948;2023-02-28T18:02:41;1.60;78.20
26541;DHT22;14206;50.202;10.948;2023-02-28T18:05:10;1.60;78.40
26541;DHT22;14206;50.202;10.948;2023-02-28T18:07:38;1.60;78.40
26541;DHT22;14206;50.202;10.948;2023-02-28T18:10:07;1.60;78.60